Terminal Aerodrome Forecast
Issued by NWS Newport/Morehead City, NC

Home | Current Version | Previous Version | Text Only | Print | Product List | Glossary On
Versions: 1 2 3 4 5 6 7 8 9 10 11 12 13 14 15 16 17 18 19 20
000
FTUS42 KMHX 181122
TAFEWN
TAF
KEWN 181122Z 1812/1912 20004KT P6SM SKC
      TEMPO 1812/1813 3SM BR
     FM181700 20008KT P6SM VCTS BKN040CB
     FM190000 20008KT P6SM SCT050
     FM190800 21004KT 3SM BR BKN025=

USA.gov is the U.S. government's official web portal to all federal, state and local government web resources and services.